createdAt,value
2022-12-17T00:00:52.064Z,55.83
2022-12-17T00:04:32.616Z,56.30
2022-12-17T00:08:16.341Z,59.07
2022-12-17T00:11:57.050Z,53.87
2022-12-17T00:15:39.190Z,54.43
2022-12-17T00:19:19.858Z,52.77
2022-12-17T00:23:00.243Z,52.43
2022-12-17T00:26:40.768Z,53.57
2022-12-17T00:30:21.713Z,49.37
2022-12-17T00:34:04.815Z,48.23
2022-12-17T00:37:46.102Z,45.87
2022-12-17T00:41:26.695Z,47.50
2022-12-17T00:45:07.396Z,47.40
2022-12-17T00:48:47.646Z,51.00
2022-12-17T00:52:29.293Z,45.83
2022-12-17T00:56:09.708Z,46.13
2022-12-17T00:59:50.245Z,46.30
2022-12-17T01:03:32.323Z,41.83
2022-12-17T01:07:12.809Z,43.83
2022-12-17T01:10:54.814Z,52.43
2022-12-17T01:14:42.512Z,41.33
2022-12-17T01:18:23.637Z,50.13
2022-12-17T01:22:05.372Z,46.83
2022-12-17T01:25:45.763Z,48.13
2022-12-17T01:29:27.378Z,45.97
2022-12-17T01:33:07.948Z,45.97
2022-12-17T01:36:48.200Z,46.53
2022-12-17T01:40:29.503Z,51.03
2022-12-17T01:44:12.855Z,45.67
2022-12-17T01:47:58.273Z,45.43
2022-12-17T01:51:39.184Z,47.23
2022-12-17T01:55:21.442Z,45.53
2022-12-17T01:58:58.784Z,45.73
2022-12-17T02:02:39.576Z,47.30
2022-12-17T02:06:29.235Z,46.97
2022-12-17T02:10:27.058Z,43.93
2022-12-17T02:14:14.724Z,49.37
2022-12-17T02:18:00.131Z,45.60
2022-12-17T02:21:44.175Z,45.97
2022-12-17T02:25:35.137Z,45.47
2022-12-17T02:29:20.411Z,41.40
2022-12-17T02:33:03.636Z,46.30
2022-12-17T02:36:44.632Z,43.50
2022-12-17T02:40:25.981Z,45.30
2022-12-17T02:44:06.968Z,45.43
2022-12-17T02:47:45.509Z,45.80
2022-12-17T02:51:26.327Z,47.77
2022-12-17T02:55:06.626Z,48.57
2022-12-17T02:58:47.293Z,46.20
2022-12-17T03:02:28.096Z,44.77
2022-12-17T03:06:09.929Z,45.73
2022-12-17T03:09:50.584Z,47.50
2022-12-17T03:13:40.723Z,45.17
2022-12-17T03:17:22.006Z,44.80
2022-12-17T03:21:02.321Z,43.60
2022-12-17T03:24:44.420Z,43.90
2022-12-17T03:28:26.514Z,42.77
2022-12-17T03:32:06.946Z,43.77
2022-12-17T03:35:47.295Z,42.17
2022-12-17T03:39:27.843Z,39.63
2022-12-17T03:43:09.825Z,41.87
2022-12-17T03:46:50.593Z,43.10
2022-12-17T03:50:31.216Z,43.17
2022-12-17T03:54:11.878Z,44.17
2022-12-17T03:57:52.353Z,44.27
2022-12-17T04:01:34.334Z,47.17
2022-12-17T04:05:19.936Z,44.50
2022-12-17T04:09:01.109Z,51.10
2022-12-17T04:12:41.795Z,44.63
2022-12-17T04:16:27.612Z,42.53
2022-12-17T04:20:09.573Z,40.40
2022-12-17T04:23:50.402Z,37.93
2022-12-17T04:27:31.009Z,34.77
2022-12-17T04:31:11.618Z,35.53
2022-12-17T04:34:51.932Z,40.00
2022-12-17T04:38:33.925Z,36.87
2022-12-17T04:42:14.364Z,35.80
2022-12-17T04:45:54.862Z,35.53
2022-12-17T04:49:37.379Z,37.27
2022-12-17T04:53:21.085Z,34.80
2022-12-17T04:57:03.505Z,37.43
2022-12-17T05:00:44.123Z,36.70
2022-12-17T05:04:23.887Z,36.20
2022-12-17T05:08:09.860Z,32.40
2022-12-17T05:11:50.411Z,31.30
2022-12-17T05:15:32.330Z,31.70
2022-12-17T05:19:13.197Z,32.23
2022-12-17T05:22:53.900Z,30.47
2022-12-17T05:26:39.007Z,31.80
2022-12-17T05:30:19.686Z,32.70
2022-12-17T05:34:01.511Z,34.83
2022-12-17T05:37:42.254Z,34.97
2022-12-17T05:41:23.063Z,33.80
2022-12-17T05:45:03.876Z,32.37
2022-12-17T05:48:44.355Z,32.77
2022-12-17T05:52:26.209Z,35.17
2022-12-17T05:56:10.194Z,33.83
2022-12-17T05:59:50.009Z,31.07
2022-12-17T06:03:30.694Z,34.23
2022-12-17T06:07:11.135Z,30.30
2022-12-17T06:10:52.985Z,31.57
2022-12-17T06:14:33.601Z,33.03
2022-12-17T06:18:17.125Z,31.13
2022-12-17T06:21:58.118Z,33.50
2022-12-17T06:25:40.426Z,36.17
2022-12-17T06:29:22.448Z,31.20
2022-12-17T06:33:03.091Z,32.67
2022-12-17T06:36:43.723Z,30.03
2022-12-17T06:40:25.315Z,28.17
2022-12-17T06:44:06.354Z,31.13
2022-12-17T06:47:48.323Z,32.20
2022-12-17T06:51:29.043Z,36.07
2022-12-17T06:55:09.561Z,35.53
2022-12-17T06:58:50.179Z,33.30
2022-12-17T07:02:30.913Z,31.50
2022-12-17T07:06:12.862Z,35.37
2022-12-17T07:09:53.355Z,32.80
2022-12-17T07:13:34.946Z,31.83
2022-12-17T07:17:15.415Z,33.47
2022-12-17T07:20:55.742Z,36.53
2022-12-17T07:24:37.592Z,33.63
2022-12-17T07:28:17.825Z,30.30
2022-12-17T07:31:59.275Z,31.43
2022-12-17T07:35:39.838Z,29.07
2022-12-17T07:39:20.271Z,30.73
2022-12-17T07:43:02.157Z,28.40
2022-12-17T07:46:42.835Z,30.33
2022-12-17T07:50:23.992Z,28.37
2022-12-17T07:54:04.565Z,30.90
2022-12-17T07:57:44.883Z,29.73
2022-12-17T08:01:27.071Z,31.23
2022-12-17T08:05:07.780Z,29.23
2022-12-17T08:08:48.102Z,30.27
2022-12-17T08:12:28.744Z,27.90
2022-12-17T08:16:11.604Z,33.60
2022-12-17T08:19:53.275Z,31.27
2022-12-17T08:23:33.807Z,29.97
2022-12-17T08:27:14.659Z,28.10
2022-12-17T08:30:55.081Z,29.80
2022-12-17T08:34:35.292Z,29.60
2022-12-17T08:38:22.528Z,28.33
2022-12-17T08:42:06.147Z,30.40
2022-12-17T08:45:46.844Z,29.43
2022-12-17T08:49:27.297Z,27.20
2022-12-17T08:53:07.640Z,28.73
2022-12-17T08:56:49.409Z,28.37
2022-12-17T09:00:30.569Z,28.17
2022-12-17T09:04:10.910Z,28.23
2022-12-17T09:07:51.319Z,27.57
2022-12-17T09:11:32.190Z,29.50
2022-12-17T09:15:14.125Z,30.83
2022-12-17T09:18:54.531Z,30.23
2022-12-17T09:22:34.926Z,29.47
2022-12-17T09:26:15.999Z,28.60
2022-12-17T09:29:56.243Z,26.60
2022-12-17T09:33:38.552Z,28.97
2022-12-17T09:37:19.472Z,26.27
2022-12-17T09:41:01.664Z,28.17
2022-12-17T09:44:47.723Z,30.90
2022-12-17T09:48:37.512Z,31.93
2022-12-17T09:52:19.597Z,34.37
2022-12-17T09:56:05.656Z,35.67
2022-12-17T09:59:48.044Z,34.10
2022-12-17T10:03:31.194Z,32.30
2022-12-17T10:07:11.951Z,33.70
2022-12-17T10:10:59.604Z,34.37
2022-12-17T10:14:41.456Z,33.20
2022-12-17T10:18:25.571Z,33.67
2022-12-17T10:22:06.148Z,33.03
2022-12-17T10:25:46.419Z,30.53
2022-12-17T10:29:32.332Z,32.73
2022-12-17T10:33:14.949Z,30.73
2022-12-17T10:36:55.282Z,29.63
2022-12-17T10:40:42.815Z,27.57
2022-12-17T10:48:22.828Z,33.67
2022-12-17T10:52:03.635Z,27.87
2022-12-17T10:55:46.539Z,28.77
2022-12-17T10:59:31.192Z,27.77
2022-12-17T11:03:13.093Z,25.83
2022-12-17T11:06:56.145Z,29.83
2022-12-17T11:10:39.876Z,29.33
2022-12-17T11:14:21.816Z,27.00
2022-12-17T11:18:09.460Z,30.33
2022-12-17T11:21:58.431Z,33.73
2022-12-17T11:25:47.975Z,32.97
2022-12-17T11:29:32.050Z,29.17
2022-12-17T11:33:21.807Z,32.57
2022-12-17T11:37:09.051Z,28.83
2022-12-17T11:40:57.557Z,32.33
2022-12-17T11:44:50.804Z,32.90
2022-12-17T11:48:36.229Z,29.97
2022-12-17T11:52:23.518Z,29.67
2022-12-17T11:56:12.303Z,31.73
2022-12-17T11:59:59.513Z,30.77
2022-12-17T12:03:55.270Z,33.37
2022-12-17T12:07:42.675Z,33.47
2022-12-17T12:11:37.978Z,38.87
2022-12-17T12:15:29.716Z,38.17
2022-12-17T12:19:29.539Z,36.37
2022-12-17T12:23:21.830Z,38.30
2022-12-17T12:27:11.134Z,38.43
2022-12-17T12:30:58.645Z,35.33
2022-12-17T12:34:43.835Z,35.70
2022-12-17T12:38:34.995Z,38.67
2022-12-17T12:42:22.263Z,38.03
2022-12-17T12:46:09.566Z,36.43
2022-12-17T12:49:50.598Z,35.77
2022-12-17T12:53:32.861Z,38.60
2022-12-17T12:57:19.445Z,37.63
2022-12-17T13:01:13.288Z,35.37
2022-12-17T13:04:55.677Z,35.73
2022-12-17T13:08:25.477Z,36.73
2022-12-17T13:11:50.335Z,36.83
2022-12-17T13:15:33.363Z,38.77
2022-12-17T13:19:03.400Z,38.67
2022-12-17T13:22:30.052Z,37.80
2022-12-17T13:26:18.176Z,37.57
2022-12-17T13:29:41.139Z,34.83
2022-12-17T13:33:29.682Z,34.40
2022-12-17T13:37:00.920Z,34.63
2022-12-17T13:40:35.349Z,35.63
2022-12-17T13:44:03.080Z,33.73
2022-12-17T13:47:28.598Z,34.93
2022-12-17T13:50:55.892Z,36.23
2022-12-17T13:54:20.577Z,36.30
2022-12-17T13:57:46.748Z,34.70
2022-12-17T14:01:15.940Z,36.97
2022-12-17T14:04:39.212Z,36.40
2022-12-17T14:08:04.273Z,33.83
2022-12-17T14:11:45.073Z,32.03
2022-12-17T14:15:21.780Z,35.93
2022-12-17T14:18:50.004Z,33.23
2022-12-17T14:22:19.883Z,35.13
2022-12-17T14:25:45.114Z,35.23
2022-12-17T14:29:14.019Z,35.70
2022-12-17T14:32:38.471Z,38.50
2022-12-17T14:36:07.062Z,35.23
2022-12-17T14:39:32.026Z,35.53
2022-12-17T14:43:00.136Z,38.27
2022-12-17T14:46:23.491Z,34.87
2022-12-17T14:49:55.877Z,36.13
2022-12-17T14:53:28.288Z,33.20
2022-12-17T14:56:51.402Z,31.40
2022-12-17T15:00:15.527Z,34.20
2022-12-17T15:03:41.409Z,31.67
2022-12-17T15:07:05.871Z,31.77
2022-12-17T15:10:30.093Z,34.17
2022-12-17T15:13:56.346Z,32.30
2022-12-17T15:17:20.068Z,35.07
2022-12-17T15:20:43.232Z,37.27
2022-12-17T15:24:11.570Z,34.40
2022-12-17T15:27:35.810Z,35.93
2022-12-17T15:30:58.759Z,39.13
2022-12-17T15:34:21.713Z,40.27
2022-12-17T15:37:44.591Z,45.27
2022-12-17T15:41:21.773Z,38.07
2022-12-17T15:44:45.980Z,39.87
2022-12-17T15:48:09.012Z,38.53
2022-12-17T15:51:31.892Z,39.20
2022-12-17T15:54:54.764Z,40.23
2022-12-17T15:58:19.033Z,38.40
2022-12-17T16:01:43.360Z,39.63
2022-12-17T16:05:07.423Z,37.57
2022-12-17T16:08:30.711Z,42.67
2022-12-17T16:11:55.040Z,40.53
2022-12-17T16:15:18.176Z,41.27
2022-12-17T16:18:42.512Z,42.00
2022-12-17T16:22:05.529Z,43.73
2022-12-17T16:25:28.409Z,41.10
2022-12-17T16:28:51.321Z,45.27
2022-12-17T16:32:14.544Z,50.63
2022-12-17T16:35:38.780Z,47.20
2022-12-17T16:39:01.646Z,46.87
2022-12-17T16:42:24.539Z,44.87
2022-12-17T16:45:49.703Z,48.27
2022-12-17T16:49:14.476Z,43.63
2022-12-17T16:52:38.946Z,51.83
2022-12-17T16:56:01.800Z,46.43
2022-12-17T16:59:25.120Z,47.10
2022-12-17T17:02:52.922Z,47.10
2022-12-17T17:06:17.228Z,43.10
2022-12-17T17:09:41.477Z,47.63
2022-12-17T17:13:05.075Z,52.30
2022-12-17T17:16:28.919Z,51.03
2022-12-17T17:19:52.024Z,55.07
2022-12-17T17:23:14.917Z,49.83
2022-12-17T17:26:39.584Z,46.30
2022-12-17T17:30:03.902Z,44.93
2022-12-17T17:33:30.489Z,44.50
2022-12-17T17:36:53.379Z,54.03
2022-12-17T17:40:16.308Z,48.40
2022-12-17T17:43:40.561Z,47.90
2022-12-17T17:47:03.966Z,47.90
2022-12-17T17:50:26.889Z,50.77
2022-12-17T17:53:51.592Z,50.03
2022-12-17T17:57:14.505Z,51.90
2022-12-17T18:00:39.816Z,49.73
2022-12-17T18:04:03.922Z,47.90
2022-12-17T18:07:27.670Z,50.13
2022-12-17T18:10:58.381Z,46.53
2022-12-17T18:14:21.293Z,55.30
2022-12-17T18:17:46.505Z,42.50
2022-12-17T18:21:12.019Z,42.47
2022-12-17T18:24:34.920Z,41.23
2022-12-17T18:27:57.859Z,43.60
2022-12-17T18:31:22.928Z,40.73
2022-12-17T18:34:47.281Z,42.70
2022-12-17T18:38:10.304Z,41.70
2022-12-17T18:41:50.740Z,41.30
2022-12-17T18:45:13.719Z,41.93
2022-12-17T18:48:36.972Z,41.73
2022-12-17T18:52:01.660Z,38.53
2022-12-17T18:55:24.572Z,37.30
2022-12-17T18:58:47.502Z,36.90
2022-12-17T19:02:12.503Z,33.83
2022-12-17T19:05:36.494Z,33.07
2022-12-17T19:09:03.974Z,33.87
2022-12-17T19:12:26.856Z,30.93
2022-12-17T19:15:49.756Z,29.57
2022-12-17T19:19:13.886Z,28.00
2022-12-17T19:22:36.824Z,29.33
2022-12-17T19:26:08.695Z,29.47
2022-12-17T19:29:31.782Z,28.97
2022-12-17T19:32:54.652Z,35.20
2022-12-17T19:36:22.612Z,32.37
2022-12-17T19:39:49.531Z,31.60
2022-12-17T19:43:13.765Z,33.27
2022-12-17T19:46:37.793Z,31.10
2022-12-17T19:50:00.706Z,37.70
2022-12-17T19:53:27.207Z,31.57
2022-12-17T19:56:50.103Z,37.50
2022-12-17T20:00:15.479Z,38.63
2022-12-17T20:03:39.587Z,31.37
2022-12-17T20:07:02.566Z,32.90
2022-12-17T20:10:25.466Z,30.17
2022-12-17T20:13:54.244Z,32.10
2022-12-17T20:17:20.250Z,33.93
2022-12-17T20:20:43.136Z,36.30
2022-12-17T20:24:06.573Z,30.80
2022-12-17T20:27:29.897Z,29.40
2022-12-17T20:30:58.080Z,29.43
2022-12-17T20:34:26.219Z,29.23
2022-12-17T20:37:49.168Z,32.53
2022-12-17T20:41:13.689Z,32.97
2022-12-17T20:44:36.592Z,32.73
2022-12-17T20:47:59.493Z,29.70
2022-12-17T20:51:26.638Z,29.80
2022-12-17T20:54:50.200Z,26.50
2022-12-17T20:58:13.701Z,27.33
2022-12-17T21:01:38.049Z,25.90
2022-12-17T21:05:01.077Z,23.53
2022-12-17T21:08:25.304Z,25.93
2022-12-17T21:11:48.404Z,25.17
2022-12-17T21:15:11.301Z,25.07
2022-12-17T21:18:34.968Z,26.57
2022-12-17T21:21:57.989Z,25.73
2022-12-17T21:25:22.253Z,26.67
2022-12-17T21:28:46.262Z,29.10
2022-12-17T21:32:09.651Z,31.37
2022-12-17T21:35:32.556Z,29.80
2022-12-17T21:38:56.084Z,28.03
2022-12-17T21:42:37.878Z,23.13
2022-12-17T21:46:00.812Z,19.90
2022-12-17T21:49:23.824Z,21.33
2022-12-17T21:52:47.000Z,19.73
2022-12-17T21:56:12.993Z,18.27
2022-12-17T21:59:40.063Z,17.13
2022-12-17T22:03:03.227Z,19.20
2022-12-17T22:06:29.872Z,16.90
2022-12-17T22:10:26.379Z,16.17
2022-12-17T22:14:08.590Z,18.47
2022-12-17T22:17:34.312Z,22.50
2022-12-17T22:21:00.373Z,24.70
2022-12-17T22:24:24.666Z,22.43
2022-12-17T22:27:47.554Z,21.23
2022-12-17T22:31:31.130Z,21.57
2022-12-17T22:35:56.096Z,18.37
2022-12-17T22:43:12.989Z,22.30
2022-12-17T22:44:35.842Z,19.93
2022-12-17T22:46:24.907Z,23.20
2022-12-17T22:49:47.886Z,17.87
2022-12-17T22:53:12.313Z,14.27
2022-12-17T22:57:08.639Z,14.60
2022-12-17T23:00:23.264Z,14.03
2022-12-17T23:03:46.274Z,14.07
2022-12-17T23:07:09.308Z,13.77
2022-12-17T23:10:33.618Z,15.63
2022-12-17T23:13:56.962Z,14.00
2022-12-17T23:17:19.871Z,15.37
2022-12-17T23:20:42.762Z,14.17
2022-12-17T23:24:06.534Z,15.57
2022-12-17T23:27:31.281Z,17.37
2022-12-17T23:30:54.336Z,16.77
2022-12-17T23:34:18.010Z,16.53
2022-12-17T23:37:41.389Z,17.87
2022-12-17T23:41:06.040Z,17.30
2022-12-17T23:44:30.349Z,29.03
2022-12-17T23:47:53.272Z,27.60
2022-12-17T23:51:19.390Z,31.30
2022-12-17T23:54:42.300Z,30.17
2022-12-17T23:58:05.224Z,21.93
